Pagrindinis puslapis
METAR-TAF:

METAR-TAF

Oro uostai :

Seulas Inčonas, Pietų Korėja

platuma: 37-28N, ilguma: 126-27E, Aukštis: 7 m

Dabartinis oras

Ataskaita buvo paskelbta 30 minutes, ne 04:00 UTC
Vėjas 7 kt iš Vakarų
Temperatūra 27°C
Drėgmė 51%
Slėgis 1007 hPa
Matomumas 10 km arba daugiau
Mažai debesys ne aukštis 3000 ft
Išsisklaidę debesys ne aukštis 20000 ft

METAR: RKSI 180400Z 28007KT 9999 FEW030 SCT200 27/16 Q1007 NOSIG

Laikas: 13:30 (04:30 UTC)

Prognozė

Ataskaita buvo paskelbta 5 valandos ir 30 minutes, ne 23:00 UTC
Prognozė galioja nuo 18 metu 00 UTC su 19 metu 06 UTC
Vėjas 7 kt iš Vakarų/Pietvakarių
Matomumas 10 km arba daugiau
Išsisklaidę debesys ne aukštis 3000 ft
Tapsmas
nuo 18 metu 03 UTC su 18 metu 04 UTC
Vėjas 8 kt iš Vakarų/Šiaurės Vakarų
Tapsmas
nuo 18 metu 16 UTC su 18 metu 17 UTC
Vėjas 6 kt iš Rytų/Šiaurės Rytų
Tapsmas
nuo 19 metu 02 UTC su 19 metu 03 UTC
Vėjas 7 kt iš Šiaurės Vakarų

TAF: RKSI 172300Z 1800/1906 24007KT 9999 SCT030 TX28/1805Z TN21/1821Z TX29/1905Z BECMG 1803/1804 30008KT BECMG 1816/1817 07006KT BECMG 1902/1903 31007KT

Orai ataskaitas ir orų prognozės (METAR, TAF).

turimą stotys yra geltonos ir raudonos taškus žemėlapyje.

Perkelti pele per norėdami pamatyti stoties vardą.

Tada spustelėkite, norėdami matyti oro stebėjimo ir prognozės.

Norėdami pakeisti žemėlapį: spustelėkite ant žalios mygtukų su juodo kryžiaus žemyn,; žalią mygtuką su brūkšneliu, jei norite nutolinti; arba žalių rodyklių gretimoms žemėlapius.


METAR-TAF: